Terminal Aerodrome Forecast
Issued by NWS Duluth, MN

Home | Current Version | Previous Version | Text Only | Print | Product List | Glossary On
Versions: 1 2 3 4 5 6 7 8 9 10 11 12 13 14 15 16 17 18 19 20 21 22 23
000
FTUS43 KDLH 172336
TAFINL
TAF
KINL 172336Z 1800/1824 20006KT P6SM FEW150
     FM180300 25006KT 6SM BR FEW010 BKN070
     FM180500 26008KT 6SM BR SCT070 WS020/30040KT
     FM181500 28010KT P6SM SCT015=

USA.gov is the U.S. government's official web portal to all federal, state and local government web resources and services.